createdAt,value
2022-08-16T00:03:37.634Z,20.70
2022-08-16T00:09:41.719Z,20.90
2022-08-16T00:15:51.739Z,20.90
2022-08-16T00:22:01.644Z,20.70
2022-08-16T00:28:06.636Z,20.70
2022-08-16T00:34:09.745Z,20.60
2022-08-16T00:40:49.705Z,20.50
2022-08-16T00:47:06.439Z,20.30
2022-08-16T00:53:13.524Z,20.20
2022-08-16T00:59:20.213Z,20.20
2022-08-16T01:05:25.984Z,20.30
2022-08-16T01:11:29.481Z,20.30
2022-08-16T01:17:36.685Z,20.30
2022-08-16T01:24:02.288Z,20.30
2022-08-16T01:30:20.705Z,20.20
2022-08-16T01:36:26.596Z,20.10
2022-08-16T01:42:28.770Z,19.90
2022-08-16T01:48:33.552Z,19.70
2022-08-16T01:54:37.714Z,19.60
2022-08-16T02:00:40.237Z,19.40
2022-08-16T02:06:46.591Z,19.20
2022-08-16T02:12:51.906Z,19.20
2022-08-16T02:18:59.248Z,19.10
2022-08-16T02:25:02.239Z,19.00
2022-08-16T02:31:10.148Z,18.90
2022-08-16T02:37:13.072Z,18.90
2022-08-16T02:43:33.169Z,18.90
2022-08-16T02:50:34.336Z,18.90
2022-08-16T02:55:59.201Z,19.00
2022-08-16T03:02:08.842Z,18.90
2022-08-16T03:08:50.313Z,18.80
2022-08-16T03:14:34.457Z,18.60
2022-08-16T03:20:37.110Z,18.50
2022-08-16T03:26:40.001Z,18.30
2022-08-16T03:32:51.755Z,18.10
2022-08-16T03:38:54.170Z,18.00
2022-08-16T03:45:02.912Z,17.90
2022-08-16T03:51:12.208Z,17.80
2022-08-16T03:57:16.446Z,17.70
2022-08-16T04:03:18.828Z,17.70
2022-08-16T04:09:20.802Z,17.70
2022-08-16T04:15:23.569Z,17.60
2022-08-16T04:21:29.740Z,17.60
2022-08-16T04:27:32.930Z,17.60
2022-08-16T04:33:36.580Z,17.60
2022-08-16T04:39:47.290Z,17.50
2022-08-16T04:46:00.238Z,17.40
2022-08-16T04:52:03.401Z,17.40
2022-08-16T04:58:43.633Z,17.50
2022-08-16T05:04:30.057Z,17.60
2022-08-16T05:10:32.448Z,17.80
2022-08-16T05:16:35.169Z,18.10
2022-08-16T05:22:39.300Z,18.30
2022-08-16T05:28:47.319Z,18.50
2022-08-16T05:34:57.474Z,18.60
2022-08-16T05:41:01.467Z,18.80
2022-08-16T05:47:04.450Z,19.00
2022-08-16T05:53:10.003Z,19.30
2022-08-16T05:59:13.338Z,19.60
2022-08-16T06:05:15.841Z,19.80
2022-08-16T06:11:17.886Z,20.00
2022-08-16T06:17:20.949Z,20.30
2022-08-16T06:23:26.254Z,20.50
2022-08-16T06:29:28.264Z,20.80
2022-08-16T06:35:40.170Z,21.00
2022-08-16T06:41:42.538Z,21.30
2022-08-16T06:47:53.725Z,21.60
2022-08-16T06:53:58.658Z,21.90
2022-08-16T07:00:02.147Z,22.30
2022-08-16T07:06:04.948Z,22.90
2022-08-16T07:12:07.699Z,23.30
2022-08-16T07:18:11.177Z,23.60
2022-08-16T07:24:29.854Z,23.80
2022-08-16T07:30:39.072Z,23.80
2022-08-16T07:36:57.963Z,23.80
2022-08-16T07:43:01.411Z,23.90
2022-08-16T07:49:04.950Z,24.30
2022-08-16T07:55:16.506Z,24.60
2022-08-16T08:01:18.535Z,24.90
2022-08-16T08:07:27.642Z,25.30
2022-08-16T08:13:42.731Z,25.20
2022-08-16T08:19:45.674Z,25.50
2022-08-16T08:25:56.044Z,25.60
2022-08-16T08:32:01.012Z,25.60
2022-08-16T08:38:03.867Z,26.10
2022-08-16T08:44:29.342Z,26.30
2022-08-16T08:50:31.941Z,26.70
2022-08-16T08:56:37.397Z,27.30
2022-08-16T09:02:39.630Z,27.40
2022-08-16T09:08:47.451Z,27.60
2022-08-16T09:14:51.315Z,27.70
2022-08-16T09:20:58.409Z,28.10
2022-08-16T09:27:02.673Z,28.60
2022-08-16T09:33:07.592Z,28.80
2022-08-16T09:39:16.186Z,29.00
2022-08-16T09:45:18.822Z,29.40
2022-08-16T09:51:26.381Z,30.00
2022-08-16T09:57:41.611Z,29.50
2022-08-16T10:04:02.293Z,29.40
2022-08-16T10:10:11.186Z,29.20
2022-08-16T10:22:22.989Z,30.20
2022-08-16T10:28:27.700Z,30.40
2022-08-16T10:34:32.783Z,30.50
2022-08-16T10:40:35.382Z,31.10
2022-08-16T10:46:41.662Z,31.70
2022-08-16T10:52:44.604Z,32.40
2022-08-16T10:58:52.772Z,33.50
2022-08-16T11:05:10.754Z,33.40
2022-08-16T11:11:19.390Z,34.30
2022-08-16T11:17:21.749Z,34.90
2022-08-16T11:23:26.729Z,33.50
2022-08-16T11:29:30.207Z,33.10
2022-08-16T11:41:57.868Z,33.00
2022-08-16T11:48:00.404Z,32.40
2022-08-16T11:54:02.504Z,31.10
2022-08-16T12:00:42.653Z,30.50
2022-08-16T12:06:33.777Z,30.90
2022-08-16T12:12:35.970Z,32.60
2022-08-16T12:18:40.555Z,31.60
2022-08-16T12:24:42.765Z,31.10
2022-08-16T12:30:47.352Z,30.60
2022-08-16T12:36:49.377Z,30.90
2022-08-16T12:42:58.642Z,32.20
2022-08-16T12:49:03.436Z,32.60
2022-08-16T12:55:06.889Z,33.70
2022-08-16T13:01:10.655Z,35.10
2022-08-16T13:07:13.866Z,35.10
2022-08-16T13:13:24.933Z,33.00
2022-08-16T13:19:39.349Z,31.50
2022-08-16T13:25:51.209Z,30.80
2022-08-16T13:31:56.897Z,32.30
2022-08-16T13:37:58.847Z,35.00
2022-08-16T13:44:01.645Z,35.90
2022-08-16T13:50:13.062Z,37.60
2022-08-16T13:56:24.803Z,38.40
2022-08-16T14:02:27.452Z,35.00
2022-08-16T14:08:29.775Z,32.80
2022-08-16T14:14:33.227Z,31.70
2022-08-16T14:20:35.305Z,31.00
2022-08-16T14:26:41.567Z,30.70
2022-08-16T14:32:46.815Z,30.30
2022-08-16T14:38:53.219Z,30.10
2022-08-16T14:44:55.442Z,29.80
2022-08-16T14:50:57.837Z,29.60
2022-08-16T14:56:59.821Z,29.70
2022-08-16T15:03:09.842Z,30.10
2022-08-16T15:09:12.071Z,30.30
2022-08-16T15:15:21.927Z,30.60
2022-08-16T15:21:24.385Z,30.30
2022-08-16T15:27:35.584Z,30.10
2022-08-16T15:33:50.021Z,29.90
2022-08-16T15:39:53.876Z,29.60
2022-08-16T15:46:35.732Z,29.30
2022-08-16T15:52:38.693Z,29.20
2022-08-16T15:58:41.653Z,29.00
2022-08-16T16:04:45.280Z,29.00
2022-08-16T16:10:54.414Z,28.90
2022-08-16T16:17:00.467Z,28.90
2022-08-16T16:23:10.694Z,28.80
2022-08-16T16:29:15.191Z,28.80
2022-08-16T16:35:17.997Z,28.90
2022-08-16T16:41:25.444Z,29.10
2022-08-16T16:47:29.818Z,29.50
2022-08-16T16:53:47.848Z,31.70
2022-08-16T16:59:58.291Z,33.20
2022-08-16T17:06:09.307Z,34.20
2022-08-16T17:12:25.421Z,34.70
2022-08-16T17:19:16.605Z,34.70
2022-08-16T17:24:59.436Z,34.90
2022-08-16T17:31:01.576Z,34.70
2022-08-16T17:37:08.027Z,34.70
2022-08-16T17:43:13.528Z,35.00
2022-08-16T17:49:15.455Z,34.40
2022-08-16T17:55:33.329Z,32.60
2022-08-16T18:01:35.354Z,31.20
2022-08-16T18:07:37.353Z,30.00
2022-08-16T18:13:42.965Z,28.90
2022-08-16T18:19:45.180Z,27.80
2022-08-16T18:25:51.305Z,27.10
2022-08-16T18:31:53.274Z,26.50
2022-08-16T18:37:55.895Z,25.90
2022-08-16T18:44:24.771Z,25.50
2022-08-16T18:50:22.140Z,25.20
2022-08-16T18:56:24.807Z,24.90
2022-08-16T19:02:59.128Z,24.70
2022-08-16T19:09:01.499Z,24.40
2022-08-16T19:15:07.154Z,24.10
2022-08-16T19:21:11.535Z,23.80
2022-08-16T19:27:16.753Z,23.60
2022-08-16T19:33:21.817Z,23.50
2022-08-16T19:39:23.873Z,23.50
2022-08-16T19:45:26.033Z,23.40
2022-08-16T19:51:28.194Z,23.30
2022-08-16T19:57:30.874Z,23.20
2022-08-16T20:03:32.941Z,23.10
2022-08-16T20:09:35.197Z,23.10
2022-08-16T20:15:40.645Z,22.80
2022-08-16T20:21:43.085Z,22.60
2022-08-16T20:27:45.278Z,22.60
2022-08-16T20:33:47.269Z,22.50
2022-08-16T20:40:28.457Z,22.40
2022-08-16T20:46:17.075Z,22.30
2022-08-16T20:52:22.214Z,22.20
2022-08-16T20:58:24.227Z,22.00
2022-08-16T21:04:28.540Z,21.80
2022-08-16T21:10:30.840Z,21.80
2022-08-16T21:16:32.802Z,21.80
2022-08-16T21:22:34.779Z,21.60
2022-08-16T21:28:41.183Z,21.40
2022-08-16T21:34:45.728Z,21.20
2022-08-16T21:40:48.234Z,21.10
2022-08-16T21:46:53.683Z,21.00
2022-08-16T21:53:13.557Z,20.90
2022-08-16T21:59:15.698Z,20.80
2022-08-16T22:05:17.699Z,20.70
2022-08-16T22:11:21.896Z,20.70
2022-08-16T22:17:23.900Z,20.50
2022-08-16T22:23:28.944Z,20.40
2022-08-16T22:29:30.898Z,20.30
2022-08-16T22:35:32.949Z,20.10
2022-08-16T22:41:36.463Z,20.00
2022-08-16T22:47:38.415Z,19.80
2022-08-16T22:53:40.412Z,19.60
2022-08-16T22:59:42.380Z,19.50
2022-08-16T23:05:57.625Z,19.50
2022-08-16T23:12:04.037Z,19.30
2022-08-16T23:18:06.488Z,19.10
2022-08-16T23:24:08.963Z,18.90
2022-08-16T23:30:11.735Z,18.90
2022-08-16T23:36:13.834Z,18.90
2022-08-16T23:42:44.164Z,18.90
2022-08-16T23:49:58.370Z,18.70
2022-08-16T23:55:05.611Z,18.60
